createdAt,value
2023-10-20T00:01:38.487Z,38.50
2023-10-20T00:06:40.569Z,36.33
2023-10-20T00:11:46.291Z,40.07
2023-10-20T00:16:48.009Z,42.67
2023-10-20T00:21:49.961Z,39.67
2023-10-20T00:26:51.665Z,39.37
2023-10-20T00:31:53.640Z,37.50
2023-10-20T00:36:55.685Z,37.87
2023-10-20T00:41:57.621Z,36.30
2023-10-20T00:46:59.971Z,37.30
2023-10-20T00:52:02.304Z,34.33
2023-10-20T00:57:04.065Z,40.50
2023-10-20T01:02:06.087Z,34.03
2023-10-20T01:07:07.875Z,37.17
2023-10-20T01:12:09.638Z,40.47
2023-10-20T01:17:11.429Z,37.30
2023-10-20T01:22:13.174Z,50.93
2023-10-20T01:27:14.940Z,39.00
2023-10-20T01:32:16.938Z,44.23
2023-10-20T01:37:19.252Z,54.07
2023-10-20T01:42:22.344Z,39.70
2023-10-20T01:47:24.122Z,37.77
2023-10-20T01:52:25.841Z,35.27
2023-10-20T01:57:27.541Z,32.70
2023-10-20T02:02:29.360Z,30.17
2023-10-20T02:07:31.116Z,25.07
2023-10-20T02:12:32.834Z,27.97
2023-10-20T02:17:35.850Z,32.00
2023-10-20T02:22:37.616Z,33.10
2023-10-20T02:27:43.476Z,26.80
2023-10-20T02:32:45.424Z,26.93
2023-10-20T02:37:48.404Z,26.63
2023-10-20T02:42:50.127Z,23.93
2023-10-20T02:47:52.457Z,19.70
2023-10-20T02:52:54.241Z,6.67
2023-10-20T02:57:56.148Z,11.03
2023-10-20T03:02:59.650Z,10.17
2023-10-20T03:08:02.757Z,12.43
2023-10-20T03:13:07.406Z,10.23
2023-10-20T03:18:09.234Z,6.77
2023-10-20T03:23:14.796Z,6.73
2023-10-20T03:28:16.647Z,8.00
2023-10-20T03:33:18.470Z,7.43
2023-10-20T03:38:20.253Z,10.93
2023-10-20T03:43:24.877Z,7.77
2023-10-20T03:48:29.038Z,5.67
2023-10-20T03:53:41.041Z,9.10
2023-10-20T03:58:43.641Z,7.67
2023-10-20T04:03:50.848Z,8.47
2023-10-20T04:08:52.725Z,9.00
2023-10-20T04:13:54.466Z,7.83
2023-10-20T04:18:56.248Z,8.67
2023-10-20T04:23:57.945Z,10.20
2023-10-20T04:29:14.695Z,10.80
2023-10-20T04:34:35.461Z,10.03
2023-10-20T04:39:55.889Z,11.50
2023-10-20T04:45:00.496Z,11.00
2023-10-20T04:50:20.684Z,9.47
2023-10-20T04:55:28.744Z,9.77
2023-10-20T05:00:35.934Z,8.97
2023-10-20T05:06:01.225Z,12.90
2023-10-20T05:11:02.926Z,15.60
2023-10-20T05:16:04.956Z,18.03
2023-10-20T05:21:07.617Z,22.73
2023-10-20T05:26:12.133Z,27.93
2023-10-20T05:31:14.196Z,31.27
2023-10-20T05:36:15.981Z,34.73
2023-10-20T05:41:17.800Z,32.10
2023-10-20T05:46:19.824Z,30.40
2023-10-20T05:51:22.689Z,35.90
2023-10-20T05:56:24.471Z,34.87
2023-10-20T06:01:26.228Z,41.43
2023-10-20T06:06:28.169Z,43.97
2023-10-20T06:11:30.046Z,45.53
2023-10-20T06:16:33.400Z,47.10
2023-10-20T06:21:36.401Z,47.27
2023-10-20T06:26:38.296Z,42.67
2023-10-20T06:31:43.495Z,40.97
2023-10-20T06:36:49.345Z,51.60
2023-10-20T06:41:51.303Z,52.83
2023-10-20T06:46:54.301Z,68.43
2023-10-20T06:51:56.166Z,61.43
2023-10-20T06:56:58.057Z,64.33
2023-10-20T07:02:01.677Z,59.03
2023-10-20T07:07:06.446Z,50.50
2023-10-20T07:12:11.369Z,42.90
2023-10-20T07:17:15.545Z,37.87
2023-10-20T07:22:17.630Z,28.70
2023-10-20T07:27:20.450Z,37.17
2023-10-20T07:32:22.495Z,30.73
2023-10-20T07:37:24.253Z,24.70
2023-10-20T07:42:25.979Z,22.33
2023-10-20T07:47:28.455Z,21.00
2023-10-20T07:52:30.236Z,21.67
2023-10-20T07:57:32.042Z,31.40
2023-10-20T08:02:33.857Z,16.07
2023-10-20T08:07:35.816Z,14.13
2023-10-20T08:12:38.029Z,9.17
2023-10-20T08:17:39.878Z,10.17
2023-10-20T08:22:41.760Z,8.30
2023-10-20T08:27:46.243Z,8.13
2023-10-20T08:32:48.507Z,7.23
2023-10-20T08:37:50.279Z,4.67
2023-10-20T08:42:52.809Z,7.30
2023-10-20T08:47:55.115Z,5.70
2023-10-20T08:52:57.991Z,5.30
2023-10-20T08:57:59.742Z,5.03
2023-10-20T09:03:01.951Z,6.50
2023-10-20T09:08:04.741Z,6.40
2023-10-20T09:13:06.512Z,3.53
2023-10-20T09:18:11.690Z,4.63
2023-10-20T09:23:13.973Z,4.53
2023-10-20T09:28:18.753Z,3.33
2023-10-20T09:33:22.322Z,4.53
2023-10-20T09:38:29.670Z,5.17
2023-10-20T09:43:33.072Z,7.97
2023-10-20T09:48:36.977Z,4.70
2023-10-20T09:53:39.691Z,6.57
2023-10-20T09:58:44.715Z,3.67
2023-10-20T10:04:02.001Z,5.93
2023-10-20T10:09:07.076Z,4.83
2023-10-20T10:14:09.553Z,5.73
2023-10-20T10:19:13.489Z,4.60
2023-10-20T10:24:22.681Z,7.30
2023-10-20T10:29:54.442Z,4.57
2023-10-20T10:34:58.158Z,5.60
2023-10-20T10:40:17.442Z,2.97
2023-10-20T10:45:25.151Z,3.43
2023-10-20T10:50:26.951Z,3.57
2023-10-20T10:55:29.130Z,2.63
2023-10-20T11:00:31.336Z,4.37
2023-10-20T11:05:34.114Z,2.70
2023-10-20T11:10:38.754Z,3.37
2023-10-20T11:15:44.143Z,1.87
2023-10-20T11:20:50.308Z,1.60
2023-10-20T11:25:52.522Z,2.90
2023-10-20T11:30:54.504Z,2.43
2023-10-20T11:36:00.689Z,2.87
2023-10-20T11:41:02.474Z,3.37
2023-10-20T11:46:06.425Z,2.13
2023-10-20T11:51:09.889Z,2.87
2023-10-20T11:56:12.446Z,4.20
2023-10-20T12:01:14.908Z,2.73
2023-10-20T12:06:16.641Z,2.47
2023-10-20T12:11:19.584Z,4.30
2023-10-20T12:16:26.098Z,1.73
2023-10-20T12:21:29.443Z,3.77
2023-10-20T12:26:31.719Z,5.37
2023-10-20T12:31:33.551Z,3.33
2023-10-20T12:36:37.037Z,5.70
2023-10-20T12:41:38.869Z,3.70
2023-10-20T12:46:40.998Z,2.53
2023-10-20T12:51:43.152Z,2.97
2023-10-20T12:56:44.985Z,1.60
2023-10-20T13:01:48.184Z,3.50
2023-10-20T13:06:59.866Z,1.83
2023-10-20T13:12:03.085Z,3.10
2023-10-20T13:17:05.398Z,69.33
2023-10-20T13:22:07.161Z,4.37
2023-10-20T13:27:08.946Z,8.63
2023-10-20T13:32:10.640Z,4.40
2023-10-20T13:37:12.355Z,3.80
2023-10-20T13:42:14.068Z,3.43
2023-10-20T13:47:15.894Z,2.47
2023-10-20T13:52:17.684Z,2.93
2023-10-20T13:57:19.415Z,5.63
2023-10-20T14:02:21.202Z,3.03
2023-10-20T14:07:22.982Z,41.57
2023-10-20T14:12:25.638Z,5.67
2023-10-20T14:17:27.399Z,5.40
2023-10-20T14:22:31.408Z,5.27
2023-10-20T14:27:37.108Z,2.37
2023-10-20T14:32:40.620Z,4.33
2023-10-20T14:37:42.491Z,1.90
2023-10-20T14:42:44.852Z,2.63
2023-10-20T14:47:46.788Z,4.63
2023-10-20T14:52:50.122Z,3.40
2023-10-20T14:57:51.835Z,3.33
2023-10-20T15:02:53.862Z,6.50
2023-10-20T15:07:56.614Z,7.57
2023-10-20T15:12:58.316Z,6.67
2023-10-20T15:18:00.585Z,6.33
2023-10-20T15:23:16.445Z,7.20
2023-10-20T15:28:19.470Z,11.43
2023-10-20T15:33:21.429Z,6.00
2023-10-20T15:38:23.293Z,11.30
2023-10-20T15:43:25.060Z,8.43
2023-10-20T15:48:26.904Z,11.23
2023-10-20T15:53:30.163Z,10.30
2023-10-20T15:58:32.147Z,14.20
2023-10-20T16:03:34.015Z,12.23
2023-10-20T16:08:35.909Z,11.43
2023-10-20T16:13:37.846Z,9.53
2023-10-20T16:18:39.700Z,11.87
2023-10-20T16:23:41.488Z,10.50
2023-10-20T16:28:43.393Z,8.73
2023-10-20T16:33:45.180Z,9.87
2023-10-20T16:38:47.773Z,6.87
2023-10-20T16:43:49.541Z,5.93
2023-10-20T16:48:52.485Z,5.47
2023-10-20T16:53:54.252Z,4.93
2023-10-20T16:58:56.016Z,9.83
2023-10-20T17:03:57.882Z,7.57
2023-10-20T17:09:00.305Z,10.50
2023-10-20T17:14:02.780Z,6.33
2023-10-20T17:19:04.572Z,8.37
2023-10-20T17:24:07.323Z,8.53
2023-10-20T17:29:09.132Z,5.80
2023-10-20T17:34:10.875Z,6.57
2023-10-20T17:39:12.936Z,5.60
2023-10-20T17:44:14.962Z,7.67
2023-10-20T17:49:16.759Z,11.17
2023-10-20T17:54:18.525Z,12.07
2023-10-20T17:59:20.310Z,10.10
2023-10-20T18:04:23.150Z,9.60
2023-10-20T18:09:25.003Z,8.27
2023-10-20T18:14:26.701Z,7.17
2023-10-20T18:19:28.689Z,6.23
2023-10-20T18:24:30.435Z,6.30
2023-10-20T18:29:32.149Z,4.47
2023-10-20T18:34:33.900Z,3.03
2023-10-20T18:39:35.763Z,4.20
2023-10-20T18:44:38.450Z,2.20
2023-10-20T18:49:40.204Z,3.57
2023-10-20T18:54:41.933Z,3.90
2023-10-20T18:59:43.704Z,1.90
2023-10-20T19:04:45.440Z,4.90
2023-10-20T19:09:47.681Z,2.43
2023-10-20T19:14:49.666Z,1.30
2023-10-20T19:19:51.456Z,2.57
2023-10-20T19:24:53.236Z,3.90
2023-10-20T19:29:55.050Z,3.37
2023-10-20T19:34:58.821Z,2.10
2023-10-20T19:40:00.541Z,2.03
2023-10-20T19:45:04.344Z,4.47
2023-10-20T19:50:07.314Z,4.60
2023-10-20T19:55:09.318Z,2.57
2023-10-20T20:00:12.091Z,1.60
2023-10-20T20:05:13.959Z,1.77
2023-10-20T20:10:15.739Z,3.50
2023-10-20T20:15:18.458Z,2.40
2023-10-20T20:20:20.739Z,2.40
2023-10-20T20:25:22.459Z,3.83
2023-10-20T20:30:24.294Z,2.27
2023-10-20T20:35:25.987Z,2.87
2023-10-20T20:40:27.972Z,1.60
2023-10-20T20:45:29.696Z,1.80
2023-10-20T20:50:33.540Z,1.97
2023-10-20T20:55:36.566Z,2.60
2023-10-20T21:00:38.425Z,2.23
2023-10-20T21:05:40.327Z,2.10
2023-10-20T21:10:42.159Z,4.60
2023-10-20T21:15:44.548Z,1.70
2023-10-20T21:20:46.338Z,2.50
2023-10-20T21:25:48.064Z,2.57
2023-10-20T21:30:49.814Z,3.80
2023-10-20T21:35:51.573Z,3.50
2023-10-20T21:40:53.690Z,3.03
2023-10-20T21:45:59.422Z,4.30
2023-10-20T21:51:03.342Z,2.40
2023-10-20T21:56:10.184Z,4.37
2023-10-20T22:01:13.254Z,4.17
2023-10-20T22:06:15.083Z,2.60
2023-10-20T22:11:16.925Z,5.70
2023-10-20T22:16:18.767Z,4.03
2023-10-20T22:21:20.566Z,4.53
2023-10-20T22:26:22.343Z,6.17
2023-10-20T22:31:24.422Z,4.83
2023-10-20T22:36:26.578Z,4.37
2023-10-20T22:41:28.380Z,2.17
2023-10-20T22:46:30.585Z,3.03
2023-10-20T22:51:32.872Z,2.87
2023-10-20T22:56:34.577Z,4.70
2023-10-20T23:01:36.321Z,4.47
2023-10-20T23:06:38.152Z,2.43
2023-10-20T23:11:39.952Z,3.87
2023-10-20T23:16:45.163Z,6.13
2023-10-20T23:21:48.037Z,3.50
2023-10-20T23:26:49.929Z,3.27
2023-10-20T23:31:51.642Z,3.70
2023-10-20T23:36:53.361Z,1.80
2023-10-20T23:41:55.214Z,1.57
2023-10-20T23:46:57.374Z,3.23
2023-10-20T23:51:59.127Z,1.23
2023-10-20T23:57:01.008Z,5.80
